Terminal Aerodrome Forecast
Issued by NWS Sterling, VA

Current Version | Previous Version | Graphics & Text | Print | Product List | Glossary On
Versions: 1 2 3 4 5 6 7 8 9 10 11 12 13 14 15 16 17 18
000
FTUS41 KLWX 162343
TAFMRB
TAF
KMRB 162343Z 1700/1724 VRB03KT P6SM FEW040 SCT100
     FM170700 00000KT 3SM BR BKN025
     FM171300 15003KT P6SM BKN120
     FM172000 16007KT P6SM -SHRA VCTS BKN060CB=

USA.gov is the U.S. government's official web portal to all federal, state and local government web resources and services.